createdAt,value
2023-05-14T00:01:26.430Z,11.77
2023-05-14T00:03:53.821Z,12.20
2023-05-14T00:06:21.635Z,12.07
2023-05-14T00:08:48.787Z,12.65
2023-05-14T00:11:16.123Z,10.75
2023-05-14T00:13:43.459Z,12.27
2023-05-14T00:16:10.928Z,12.02
2023-05-14T00:18:38.255Z,11.20
2023-05-14T00:21:05.703Z,12.02
2023-05-14T00:23:32.860Z,11.70
2023-05-14T00:26:00.292Z,10.52
2023-05-14T00:28:27.753Z,10.32
2023-05-14T00:30:56.060Z,10.05
2023-05-14T00:33:23.439Z,10.30
2023-05-14T00:35:51.738Z,10.27
2023-05-14T00:38:19.657Z,13.32
2023-05-14T00:40:51.389Z,10.88
2023-05-14T00:43:20.439Z,12.20
2023-05-14T00:45:47.693Z,11.73
2023-05-14T00:48:15.031Z,12.68
2023-05-14T00:50:42.310Z,12.15
2023-05-14T00:53:10.778Z,10.45
2023-05-14T00:55:38.259Z,12.75
2023-05-14T00:58:05.592Z,12.85
2023-05-14T01:00:32.904Z,12.10
2023-05-14T01:03:01.966Z,12.43
2023-05-14T01:05:29.304Z,12.13
2023-05-14T01:07:56.704Z,12.32
2023-05-14T01:10:24.125Z,11.98
2023-05-14T01:12:51.804Z,12.45
2023-05-14T01:15:19.084Z,12.85
2023-05-14T01:17:46.577Z,12.90
2023-05-14T01:20:14.033Z,12.45
2023-05-14T01:22:41.270Z,12.02
2023-05-14T01:25:08.553Z,13.40
2023-05-14T01:27:35.980Z,12.95
2023-05-14T01:30:03.485Z,12.57
2023-05-14T01:32:31.065Z,12.93
2023-05-14T01:34:58.436Z,13.15
2023-05-14T01:37:25.680Z,13.25
2023-05-14T01:39:53.068Z,12.65
2023-05-14T01:42:20.784Z,12.70
2023-05-14T01:44:48.188Z,14.35
2023-05-14T01:47:15.700Z,14.05
2023-05-14T01:49:42.943Z,13.65
2023-05-14T01:52:10.197Z,13.55
2023-05-14T01:54:37.535Z,14.13
2023-05-14T01:57:04.867Z,14.13
2023-05-14T01:59:32.157Z,13.85
2023-05-14T02:01:59.427Z,16.40
2023-05-14T02:04:26.842Z,14.90
2023-05-14T02:06:54.132Z,15.65
2023-05-14T02:09:21.447Z,16.20
2023-05-14T02:11:48.662Z,17.88
2023-05-14T02:14:16.292Z,17.25
2023-05-14T02:16:43.598Z,16.77
2023-05-14T02:19:11.285Z,18.05
2023-05-14T02:21:38.671Z,17.90
2023-05-14T02:24:06.031Z,18.88
2023-05-14T02:26:33.306Z,19.63
2023-05-14T02:29:00.519Z,18.65
2023-05-14T02:31:27.782Z,18.13
2023-05-14T02:33:55.060Z,18.92
2023-05-14T02:36:22.355Z,17.77
2023-05-14T02:38:49.698Z,18.15
2023-05-14T02:41:16.901Z,18.48
2023-05-14T02:43:44.179Z,18.38
2023-05-14T02:46:11.384Z,17.42
2023-05-14T02:48:38.669Z,18.13
2023-05-14T02:51:07.751Z,19.42
2023-05-14T02:53:34.987Z,18.73
2023-05-14T02:56:02.264Z,17.58
2023-05-14T02:58:29.557Z,18.00
2023-05-14T03:00:56.994Z,17.60
2023-05-14T03:03:24.931Z,18.08
2023-05-14T03:05:53.006Z,17.33
2023-05-14T03:08:20.536Z,17.83
2023-05-14T03:10:47.794Z,17.85
2023-05-14T03:13:20.177Z,17.42
2023-05-14T03:15:47.624Z,18.45
2023-05-14T03:18:15.245Z,17.88
2023-05-14T03:20:42.593Z,16.45
2023-05-14T03:23:09.896Z,16.05
2023-05-14T03:25:37.201Z,18.60
2023-05-14T03:28:04.394Z,17.17
2023-05-14T03:30:31.744Z,17.50
2023-05-14T03:32:59.024Z,17.30
2023-05-14T03:35:26.487Z,18.15
2023-05-14T03:37:54.083Z,18.27
2023-05-14T03:40:21.727Z,17.42
2023-05-14T03:42:49.734Z,18.17
2023-05-14T03:45:17.061Z,17.38
2023-05-14T03:47:44.451Z,16.83
2023-05-14T03:50:12.008Z,17.67
2023-05-14T03:52:40.613Z,18.48
2023-05-14T03:55:08.473Z,19.45
2023-05-14T03:57:36.906Z,19.30
2023-05-14T04:00:04.116Z,17.23
2023-05-14T04:02:43.936Z,16.77
2023-05-14T04:05:11.659Z,20.52
2023-05-14T04:07:38.864Z,20.50
2023-05-14T04:10:06.438Z,19.35
2023-05-14T04:12:35.732Z,20.33
2023-05-14T04:15:04.206Z,19.83
2023-05-14T04:17:31.548Z,19.10
2023-05-14T04:19:58.848Z,19.48
2023-05-14T04:22:26.046Z,19.38
2023-05-14T04:24:53.659Z,20.38
2023-05-14T04:27:21.600Z,20.50
2023-05-14T04:29:48.881Z,18.85
2023-05-14T04:32:16.155Z,19.45
2023-05-14T04:34:43.492Z,19.90
2023-05-14T04:37:10.692Z,19.45
2023-05-14T04:39:38.091Z,20.40
2023-05-14T04:42:05.450Z,19.80
2023-05-14T04:44:33.138Z,19.23
2023-05-14T04:47:00.588Z,19.55
2023-05-14T04:49:27.813Z,19.42
2023-05-14T04:51:55.008Z,18.23
2023-05-14T04:54:22.286Z,19.75
2023-05-14T04:56:49.546Z,19.88
2023-05-14T04:59:16.900Z,20.17
2023-05-14T05:01:45.438Z,19.80
2023-05-14T05:04:13.105Z,20.98
2023-05-14T05:06:40.499Z,18.70
2023-05-14T05:09:08.941Z,17.77
2023-05-14T05:11:36.218Z,17.02
2023-05-14T05:14:03.537Z,17.80
2023-05-14T05:16:31.048Z,18.88
2023-05-14T05:18:58.345Z,19.13
2023-05-14T05:21:25.687Z,18.02
2023-05-14T05:23:52.991Z,19.30
2023-05-14T05:26:22.173Z,19.38
2023-05-14T05:28:49.417Z,17.15
2023-05-14T05:31:19.667Z,16.92
2023-05-14T05:33:47.260Z,16.63
2023-05-14T05:36:14.552Z,16.38
2023-05-14T05:38:41.863Z,17.35
2023-05-14T05:41:09.132Z,16.52
2023-05-14T05:43:36.720Z,16.08
2023-05-14T05:46:03.951Z,16.52
2023-05-14T05:48:31.190Z,15.80
2023-05-14T05:50:58.388Z,15.43
2023-05-14T05:53:25.735Z,16.33
2023-05-14T05:55:52.945Z,14.80
2023-05-14T05:58:20.335Z,13.82
2023-05-14T06:00:48.475Z,15.07
2023-05-14T06:03:16.064Z,16.10
2023-05-14T06:05:43.500Z,14.23
2023-05-14T06:08:10.916Z,16.80
2023-05-14T06:10:38.298Z,14.82
2023-05-14T06:13:05.565Z,17.15
2023-05-14T06:15:32.927Z,15.85
2023-05-14T06:18:00.198Z,14.27
2023-05-14T06:20:27.507Z,15.68
2023-05-14T06:22:54.758Z,14.25
2023-05-14T06:25:21.932Z,13.73
2023-05-14T06:27:49.194Z,13.65
2023-05-14T06:30:16.591Z,13.80
2023-05-14T06:32:43.859Z,13.20
2023-05-14T06:35:11.231Z,13.52
2023-05-14T06:37:38.589Z,12.90
2023-05-14T06:40:05.891Z,14.10
2023-05-14T06:42:33.186Z,14.25
2023-05-14T06:45:01.367Z,12.85
2023-05-14T06:47:28.668Z,13.75
2023-05-14T06:49:58.608Z,14.18
2023-05-14T06:52:26.127Z,13.55
2023-05-14T06:54:53.508Z,14.18
2023-05-14T06:57:21.143Z,13.40
2023-05-14T06:59:48.443Z,13.45
2023-05-14T07:02:15.725Z,13.70
2023-05-14T07:04:43.413Z,12.82
2023-05-14T07:07:13.633Z,13.88
2023-05-14T07:09:42.030Z,12.60
2023-05-14T07:12:09.318Z,13.55
2023-05-14T07:14:36.630Z,13.50
2023-05-14T07:17:03.884Z,11.95
2023-05-14T07:19:31.143Z,12.07
2023-05-14T07:21:58.374Z,13.80
2023-05-14T07:24:25.729Z,12.38
2023-05-14T07:26:53.537Z,12.70
2023-05-14T07:29:20.868Z,11.48
2023-05-14T07:31:48.166Z,11.82
2023-05-14T07:34:15.571Z,10.90
2023-05-14T07:36:42.925Z,11.10
2023-05-14T07:39:10.183Z,10.23
2023-05-14T07:41:37.379Z,10.50
2023-05-14T07:44:05.153Z,9.73
2023-05-14T07:46:32.432Z,10.50
2023-05-14T07:48:59.810Z,10.10
2023-05-14T07:51:28.532Z,11.48
2023-05-14T07:53:55.974Z,10.18
2023-05-14T07:56:23.208Z,10.55
2023-05-14T07:58:50.735Z,9.80
2023-05-14T08:01:18.008Z,10.45
2023-05-14T08:03:45.895Z,10.30
2023-05-14T08:06:13.201Z,10.63
2023-05-14T08:08:40.524Z,9.63
2023-05-14T08:11:07.821Z,9.57
2023-05-14T08:13:35.105Z,9.02
2023-05-14T08:16:02.924Z,9.75
2023-05-14T08:18:30.228Z,9.95
2023-05-14T08:20:57.923Z,10.30
2023-05-14T08:23:25.242Z,9.40
2023-05-14T08:25:52.513Z,10.63
2023-05-14T08:28:19.825Z,9.80
2023-05-14T08:30:47.750Z,9.63
2023-05-14T08:33:15.051Z,9.00
2023-05-14T08:35:42.294Z,9.27
2023-05-14T08:38:09.557Z,9.95
2023-05-14T08:40:36.794Z,10.73
2023-05-14T08:43:04.001Z,8.60
2023-05-14T08:45:34.092Z,11.43
2023-05-14T08:48:02.214Z,11.15
2023-05-14T08:50:30.636Z,9.13
2023-05-14T08:52:58.283Z,8.05
2023-05-14T08:55:26.226Z,7.78
2023-05-14T08:57:53.413Z,8.93
2023-05-14T09:00:20.700Z,8.13
2023-05-14T09:02:48.019Z,7.93
2023-05-14T09:05:15.259Z,9.20
2023-05-14T09:07:42.419Z,8.25
2023-05-14T09:10:09.675Z,7.10
2023-05-14T09:12:36.868Z,7.40
2023-05-14T09:15:04.796Z,8.32
2023-05-14T09:17:32.145Z,8.35
2023-05-14T09:19:59.651Z,7.50
2023-05-14T09:22:26.843Z,7.07
2023-05-14T09:24:54.246Z,7.07
2023-05-14T09:27:21.642Z,6.65
2023-05-14T09:29:48.914Z,7.18
2023-05-14T09:32:16.144Z,6.70
2023-05-14T09:34:43.683Z,6.55
2023-05-14T09:37:10.947Z,6.85
2023-05-14T09:39:38.244Z,6.45
2023-05-14T09:42:05.588Z,6.53
2023-05-14T09:44:32.932Z,7.07
2023-05-14T09:47:00.198Z,6.25
2023-05-14T09:49:27.757Z,6.70
2023-05-14T09:51:54.969Z,6.25
2023-05-14T09:54:22.275Z,5.65
2023-05-14T09:56:49.540Z,5.90
2023-05-14T09:59:16.793Z,5.47
2023-05-14T10:01:44.629Z,6.30
2023-05-14T10:04:12.285Z,6.03
2023-05-14T10:06:39.613Z,6.32
2023-05-14T10:09:06.936Z,6.72
2023-05-14T10:11:34.315Z,6.30
2023-05-14T10:14:01.575Z,5.72
2023-05-14T10:16:32.141Z,6.15
2023-05-14T10:18:59.507Z,6.65
2023-05-14T10:21:26.765Z,7.40
2023-05-14T10:23:54.221Z,5.80
2023-05-14T10:26:23.844Z,7.10
2023-05-14T10:28:51.477Z,6.53
2023-05-14T10:31:18.726Z,6.25
2023-05-14T10:33:46.000Z,6.53
2023-05-14T10:36:13.274Z,6.50
2023-05-14T10:38:40.754Z,6.22
2023-05-14T10:41:07.999Z,6.68
2023-05-14T10:43:35.291Z,5.82
2023-05-14T10:46:03.154Z,5.63
2023-05-14T10:48:30.547Z,6.10
2023-05-14T10:50:57.798Z,6.72
2023-05-14T10:53:25.095Z,6.28
2023-05-14T10:55:52.219Z,5.60
2023-05-14T10:58:19.503Z,5.50
2023-05-14T11:00:46.713Z,6.18
2023-05-14T11:03:13.993Z,5.72
2023-05-14T11:05:41.299Z,5.57
2023-05-14T11:08:08.655Z,5.88
2023-05-14T11:10:36.902Z,5.82
2023-05-14T11:13:04.220Z,6.43
2023-05-14T11:15:31.383Z,5.38
2023-05-14T11:18:01.114Z,5.00
2023-05-14T11:20:28.508Z,5.57
2023-05-14T11:22:55.797Z,5.72
2023-05-14T11:25:25.723Z,6.35
2023-05-14T11:27:56.064Z,5.55
2023-05-14T11:30:23.650Z,5.50
2023-05-14T11:32:51.376Z,4.95
2023-05-14T11:35:21.001Z,6.00
2023-05-14T11:37:48.249Z,5.22
2023-05-14T11:40:16.723Z,5.15
2023-05-14T11:42:44.174Z,4.80
2023-05-14T11:45:11.998Z,3.95
2023-05-14T11:47:39.448Z,4.65
2023-05-14T11:50:09.190Z,4.82
2023-05-14T11:52:36.757Z,4.97
2023-05-14T11:55:03.986Z,4.85
2023-05-14T11:57:31.238Z,4.80
2023-05-14T11:59:58.456Z,4.10
2023-05-14T12:02:25.910Z,4.82
2023-05-14T12:04:53.296Z,5.38
2023-05-14T12:07:20.670Z,5.43
2023-05-14T12:09:49.804Z,7.10
2023-05-14T12:12:17.244Z,5.88
2023-05-14T12:14:45.422Z,5.40
2023-05-14T12:17:13.018Z,5.32
2023-05-14T12:19:40.224Z,5.55
2023-05-14T12:22:07.496Z,5.63
2023-05-14T12:24:34.721Z,5.25
2023-05-14T12:27:01.958Z,5.07
2023-05-14T12:29:29.157Z,5.60
2023-05-14T12:31:56.465Z,5.85
2023-05-14T12:34:23.750Z,5.10
2023-05-14T12:36:51.014Z,4.35
2023-05-14T12:39:18.268Z,4.63
2023-05-14T12:41:45.720Z,6.35
2023-05-14T12:44:12.976Z,5.60
2023-05-14T12:46:40.277Z,5.32
2023-05-14T12:49:07.525Z,5.82
2023-05-14T12:51:34.753Z,5.00
2023-05-14T12:54:02.014Z,4.90
2023-05-14T12:56:30.982Z,5.10
2023-05-14T12:58:58.304Z,4.60
2023-05-14T13:01:25.727Z,4.18
2023-05-14T13:03:53.045Z,4.43
2023-05-14T13:06:20.397Z,4.95
2023-05-14T13:08:47.732Z,4.15
2023-05-14T13:11:15.026Z,4.18
2023-05-14T13:13:42.312Z,5.07
2023-05-14T13:16:10.641Z,5.10
2023-05-14T13:18:38.001Z,4.55
2023-05-14T13:21:06.462Z,4.30
2023-05-14T13:23:33.903Z,5.30
2023-05-14T13:26:01.168Z,4.50
2023-05-14T13:28:28.359Z,3.75
2023-05-14T13:30:56.094Z,4.10
2023-05-14T13:33:24.424Z,4.03
2023-05-14T13:35:51.714Z,4.47
2023-05-14T13:38:18.996Z,4.60
2023-05-14T13:40:46.325Z,4.50
2023-05-14T13:43:14.900Z,5.57
2023-05-14T13:45:42.204Z,5.38
2023-05-14T13:48:09.477Z,6.30
2023-05-14T13:50:36.728Z,5.72
2023-05-14T13:53:04.117Z,6.63
2023-05-14T13:55:31.503Z,6.82
2023-05-14T13:57:59.536Z,6.72
2023-05-14T14:00:27.627Z,6.07
2023-05-14T14:02:57.206Z,5.50
2023-05-14T14:08:04.392Z,6.03
2023-05-14T14:10:42.432Z,4.88
2023-05-14T14:13:09.766Z,6.07
2023-05-14T14:15:37.020Z,4.65
2023-05-14T14:18:04.714Z,4.22
2023-05-14T14:20:31.961Z,4.30
2023-05-14T14:22:59.251Z,5.70
2023-05-14T14:25:26.629Z,5.50
2023-05-14T14:27:53.897Z,5.15
2023-05-14T14:30:21.189Z,5.30
2023-05-14T14:32:48.448Z,5.00
2023-05-14T14:35:15.690Z,6.20
2023-05-14T14:37:45.036Z,5.75
2023-05-14T14:40:12.266Z,5.15
2023-05-14T14:42:39.620Z,3.85
2023-05-14T14:45:06.813Z,4.53
2023-05-14T14:47:34.168Z,3.28
2023-05-14T14:50:01.470Z,2.97
2023-05-14T14:52:28.758Z,3.28
2023-05-14T14:54:56.335Z,4.15
2023-05-14T14:57:23.724Z,3.95
2023-05-14T14:59:51.000Z,3.80
2023-05-14T15:02:18.420Z,3.38
2023-05-14T15:04:45.753Z,3.83
2023-05-14T15:07:13.106Z,3.75
2023-05-14T15:09:40.328Z,4.43
2023-05-14T15:12:09.013Z,4.30
2023-05-14T15:14:36.284Z,3.80
2023-05-14T15:17:03.568Z,3.17
2023-05-14T15:19:32.361Z,2.85
2023-05-14T15:21:59.519Z,3.42
2023-05-14T15:24:26.911Z,3.10
2023-05-14T15:26:54.227Z,2.95
2023-05-14T15:29:21.565Z,2.90
2023-05-14T15:31:48.880Z,3.40
2023-05-14T15:34:16.367Z,3.40
2023-05-14T15:36:43.697Z,3.55
2023-05-14T15:39:10.994Z,3.53
2023-05-14T15:41:38.191Z,3.28
2023-05-14T15:44:05.475Z,3.03
2023-05-14T15:46:32.794Z,3.50
2023-05-14T15:49:00.249Z,2.97
2023-05-14T15:51:27.488Z,2.80
2023-05-14T15:53:54.768Z,2.60
2023-05-14T15:56:22.311Z,3.33
2023-05-14T15:58:49.856Z,3.10
2023-05-14T16:01:17.121Z,3.17
2023-05-14T16:03:44.610Z,3.20
2023-05-14T16:06:11.958Z,3.60
2023-05-14T16:08:39.202Z,3.88
2023-05-14T16:11:07.661Z,3.20
2023-05-14T16:13:35.977Z,3.40
2023-05-14T16:16:03.230Z,2.80
2023-05-14T16:18:30.683Z,3.20
2023-05-14T16:20:58.035Z,3.30
2023-05-14T16:23:25.557Z,3.85
2023-05-14T16:25:52.764Z,3.58
2023-05-14T16:28:20.043Z,3.85
2023-05-14T16:30:47.198Z,3.72
2023-05-14T16:33:14.496Z,4.10
2023-05-14T16:35:41.812Z,4.55
2023-05-14T16:38:09.078Z,3.40
2023-05-14T16:40:37.458Z,3.30
2023-05-14T16:43:04.863Z,3.63
2023-05-14T16:45:34.313Z,4.57
2023-05-14T16:48:01.658Z,3.75
2023-05-14T16:50:29.004Z,4.07
2023-05-14T16:52:56.237Z,4.05
2023-05-14T16:55:23.753Z,4.38
2023-05-14T16:57:51.404Z,3.55
2023-05-14T17:00:18.761Z,4.00
2023-05-14T17:02:49.058Z,6.05
2023-05-14T17:05:16.403Z,4.22
2023-05-14T17:07:43.673Z,5.55
2023-05-14T17:10:11.110Z,5.28
2023-05-14T17:12:38.375Z,4.90
2023-05-14T17:15:05.872Z,5.35
2023-05-14T17:17:33.878Z,4.72
2023-05-14T17:20:01.312Z,5.20
2023-05-14T17:22:28.728Z,5.60
2023-05-14T17:24:56.007Z,4.90
2023-05-14T17:27:23.228Z,5.47
2023-05-14T17:29:53.294Z,6.78
2023-05-14T17:32:20.674Z,5.38
2023-05-14T17:34:47.965Z,6.75
2023-05-14T17:37:15.239Z,5.80
2023-05-14T17:39:42.465Z,5.43
2023-05-14T17:42:09.670Z,4.95
2023-05-14T17:44:36.967Z,4.88
2023-05-14T17:47:04.900Z,6.38
2023-05-14T17:49:32.245Z,4.97
2023-05-14T17:51:59.740Z,4.93
2023-05-14T17:54:26.967Z,4.90
2023-05-14T17:56:54.230Z,5.97
2023-05-14T17:59:22.975Z,6.47
2023-05-14T18:01:51.578Z,6.07
2023-05-14T18:04:20.765Z,7.18
2023-05-14T18:06:47.916Z,6.68
2023-05-14T18:09:15.353Z,7.50
2023-05-14T18:11:42.589Z,7.32
2023-05-14T18:14:10.194Z,6.47
2023-05-14T18:16:37.546Z,7.53
2023-05-14T18:19:04.935Z,7.40
2023-05-14T18:21:32.472Z,8.68
2023-05-14T18:23:59.873Z,9.90
2023-05-14T18:26:27.129Z,10.52
2023-05-14T18:28:54.386Z,12.77
2023-05-14T18:31:21.689Z,12.20
2023-05-14T18:33:49.106Z,12.65
2023-05-14T18:36:16.367Z,12.30
2023-05-14T18:38:43.722Z,16.00
2023-05-14T18:41:11.018Z,12.80
2023-05-14T18:43:38.264Z,13.07
2023-05-14T18:46:05.570Z,14.18
2023-05-14T18:48:32.917Z,16.77
2023-05-14T18:51:01.101Z,15.43
2023-05-14T18:53:29.349Z,18.58
2023-05-14T18:56:00.081Z,16.65
2023-05-14T18:58:27.366Z,18.92
2023-05-14T19:00:57.568Z,15.93
2023-05-14T19:03:24.927Z,16.77
2023-05-14T19:05:52.264Z,17.50
2023-05-14T19:08:19.565Z,17.00
2023-05-14T19:10:46.792Z,15.77
2023-05-14T19:13:15.896Z,16.63
2023-05-14T19:15:43.188Z,15.88
2023-05-14T19:18:10.883Z,17.80
2023-05-14T19:20:38.035Z,17.23
2023-05-14T19:23:05.340Z,18.20
2023-05-14T19:25:33.759Z,16.02
2023-05-14T19:28:01.700Z,15.82
2023-05-14T19:30:28.906Z,16.42
2023-05-14T19:32:56.258Z,16.52
2023-05-14T19:35:23.614Z,15.68
2023-05-14T19:37:51.118Z,16.35
2023-05-14T19:40:18.370Z,19.83
2023-05-14T19:42:45.671Z,15.32
2023-05-14T19:45:12.848Z,15.07
2023-05-14T19:47:40.245Z,14.68
2023-05-14T19:50:08.586Z,17.25
2023-05-14T19:52:35.861Z,16.30
2023-05-14T19:55:03.170Z,15.15
2023-05-14T19:57:30.383Z,16.02
2023-05-14T19:59:57.785Z,15.85
2023-05-14T20:02:25.225Z,14.98
2023-05-14T20:04:55.542Z,16.33
2023-05-14T20:07:25.108Z,17.10
2023-05-14T20:09:53.929Z,14.70
2023-05-14T20:12:21.228Z,15.95
2023-05-14T20:14:48.510Z,15.75
2023-05-14T20:17:15.751Z,15.43
2023-05-14T20:19:43.841Z,15.50
2023-05-14T20:22:11.367Z,14.77
2023-05-14T20:24:38.809Z,15.57
2023-05-14T20:27:06.311Z,16.08
2023-05-14T20:29:33.663Z,13.98
2023-05-14T20:32:01.088Z,12.50
2023-05-14T20:34:28.405Z,12.77
2023-05-14T20:36:56.227Z,13.68
2023-05-14T20:39:23.480Z,13.15
2023-05-14T20:41:50.820Z,13.73
2023-05-14T20:44:19.130Z,13.57
2023-05-14T20:46:47.762Z,11.57
2023-05-14T20:49:15.111Z,11.85
2023-05-14T20:51:42.401Z,12.60
2023-05-14T20:54:09.725Z,11.90
2023-05-14T20:56:37.025Z,11.45
2023-05-14T20:59:04.310Z,10.98
2023-05-14T21:01:31.553Z,11.55
2023-05-14T21:03:59.187Z,10.32
2023-05-14T21:06:26.634Z,9.50
2023-05-14T21:08:53.995Z,8.82
2023-05-14T21:11:23.080Z,9.07
2023-05-14T21:13:50.428Z,7.15
2023-05-14T21:16:17.892Z,7.38
2023-05-14T21:18:45.261Z,6.45
2023-05-14T21:21:12.525Z,6.25
2023-05-14T21:23:39.843Z,5.07
2023-05-14T21:26:07.035Z,5.55
2023-05-14T21:28:34.369Z,5.50
2023-05-14T21:31:01.589Z,4.20
2023-05-14T21:33:29.113Z,4.82
2023-05-14T21:35:56.478Z,4.55
2023-05-14T21:38:23.804Z,4.85
2023-05-14T21:40:51.431Z,3.83
2023-05-14T21:43:18.811Z,5.35
2023-05-14T21:45:47.361Z,3.65
2023-05-14T21:48:14.776Z,2.83
2023-05-14T21:50:42.068Z,2.90
2023-05-14T21:53:09.339Z,2.97
2023-05-14T21:55:36.542Z,1.98
2023-05-14T21:58:03.913Z,2.05
2023-05-14T22:00:31.820Z,2.97
2023-05-14T22:02:59.168Z,1.52
2023-05-14T22:05:28.481Z,3.22
2023-05-14T22:07:55.722Z,2.00
2023-05-14T22:10:22.944Z,2.00
2023-05-14T22:12:51.362Z,1.23
2023-05-14T22:15:18.998Z,1.80
2023-05-14T22:17:47.573Z,1.95
2023-05-14T22:20:14.813Z,1.90
2023-05-14T22:22:42.217Z,1.83
2023-05-14T22:25:09.591Z,2.10
2023-05-14T22:27:36.872Z,2.17
2023-05-14T22:30:04.891Z,1.85
2023-05-14T22:32:32.361Z,2.80
2023-05-14T22:35:00.025Z,2.50
2023-05-14T22:37:27.309Z,2.17
2023-05-14T22:39:54.526Z,1.55
2023-05-14T22:42:21.846Z,1.65
2023-05-14T22:44:49.062Z,1.73
2023-05-14T22:47:16.507Z,3.80
2023-05-14T22:49:43.869Z,2.50
2023-05-14T22:52:11.164Z,1.73
2023-05-14T22:54:38.348Z,2.05
2023-05-14T22:57:05.568Z,1.33
2023-05-14T22:59:32.821Z,1.48
2023-05-14T23:02:00.198Z,1.50
2023-05-14T23:04:27.557Z,1.98
2023-05-14T23:06:54.907Z,1.75
2023-05-14T23:09:22.122Z,1.15
2023-05-14T23:11:49.479Z,1.33
2023-05-14T23:14:18.064Z,1.00
2023-05-14T23:16:45.352Z,1.23
2023-05-14T23:19:12.780Z,1.50
2023-05-14T23:21:40.229Z,1.60
2023-05-14T23:24:07.539Z,1.75
2023-05-14T23:26:34.816Z,1.35
2023-05-14T23:29:02.048Z,1.70
2023-05-14T23:31:29.244Z,2.65
2023-05-14T23:33:56.949Z,2.65
2023-05-14T23:36:24.303Z,1.63
2023-05-14T23:38:51.675Z,2.10
2023-05-14T23:41:18.984Z,1.40
2023-05-14T23:43:49.014Z,1.95
2023-05-14T23:46:16.254Z,4.18
2023-05-14T23:48:43.530Z,1.50
2023-05-14T23:51:11.292Z,1.60
2023-05-14T23:53:38.648Z,1.17
2023-05-14T23:56:06.015Z,1.73
2023-05-14T23:58:33.747Z,2.03
